BAW4LV KLAS-EGLL
Flight info
| Callsign | BAW4LV |
|---|---|
| Flight time | N/A |
| Altitude | 35000 |
| Route | RATPK3 FRNCK DCT MLF DCT FBR DCT DIK Q945 SEGAP DCT KAIIN/N0498F370 DCT 57N090W 62N080W 66N070W/M084F370 DCT DARUB DCT 67N050W/M084F390 67N040W 65N030W 63N020W DCT BALIX/N0481F390 DCT NINEX DCT AKOMU DCT VAMEB DCT NUGRA NUGRA2H |
| Aircraft | A35K/H-SBDE1E2E3GHIJ1J3J4J5J6M1M2P2RWXYZ/LB1D1 |
Departure
| Time | N/A |
|---|---|
| Airport | Harry Reid International Airport (KLAS) |
Arrival
| Time | 2026-05-04 07:41 |
|---|---|
| Airport | London Heathrow Airport (EGLL) |
| Time | Latitude | Longitude | Altitude | Speed | Heading |
|---|---|---|---|---|---|
| 2026-05-04 06:16 | 59.14564 | -10.29658 | 38961 ft | 525 kts | 135° |
| 2026-05-04 06:17 | 59.09514 | -10.19330 | 38964 ft | 526 kts | 135° |
| 2026-05-04 06:17 | 59.04491 | -10.09104 | 38966 ft | 526 kts | 135° |
| 2026-05-04 06:18 | 58.99710 | -9.98339 | 38967 ft | 528 kts | 124° |
| 2026-05-04 06:20 | 58.84791 | -9.49499 | 38981 ft | 525 kts | 133° |
| 2026-05-04 06:21 | 58.71149 | -9.26237 | 38975 ft | 524 kts | 142° |
| 2026-05-04 06:22 | 58.65605 | -9.17307 | 38979 ft | 523 kts | 142° |
| 2026-05-04 06:25 | 58.26646 | -8.54912 | 38993 ft | 523 kts | 142° |
| 2026-05-04 06:26 | 58.21037 | -8.46078 | 38995 ft | 523 kts | 142° |
| 2026-05-04 06:26 | 58.15431 | -8.37287 | 38994 ft | 522 kts | 142° |
| 2026-05-04 06:27 | 58.01425 | -8.15481 | 39000 ft | 521 kts | 142° |
| 2026-05-04 06:28 | 57.95848 | -8.06863 | 39004 ft | 521 kts | 142° |
| 2026-05-04 06:28 | 57.90234 | -7.98223 | 38999 ft | 520 kts | 142° |
| 2026-05-04 06:29 | 57.84629 | -7.89633 | 39016 ft | 519 kts | 142° |
| 2026-05-04 06:29 | 57.79020 | -7.81073 | 39016 ft | 520 kts | 142° |
| 2026-05-04 06:30 | 57.73400 | -7.72531 | 39015 ft | 520 kts | 142° |
| 2026-05-04 06:30 | 57.67780 | -7.64024 | 39012 ft | 520 kts | 142° |
| 2026-05-04 06:31 | 57.62161 | -7.55553 | 39018 ft | 518 kts | 142° |
| 2026-05-04 06:31 | 57.56581 | -7.47175 | 39020 ft | 518 kts | 142° |
| 2026-05-04 06:33 | 57.34070 | -7.13723 | 39029 ft | 516 kts | 142° |
| 2026-05-04 06:34 | 57.28442 | -7.05441 | 39031 ft | 516 kts | 142° |
| 2026-05-04 06:34 | 57.22843 | -6.97237 | 39035 ft | 516 kts | 142° |
| 2026-05-04 06:36 | 57.00298 | -6.64531 | 39040 ft | 515 kts | 142° |
| 2026-05-04 06:37 | 56.94693 | -6.56480 | 39043 ft | 515 kts | 142° |
| 2026-05-04 06:37 | 56.89049 | -6.48405 | 39041 ft | 514 kts | 142° |
| 2026-05-04 06:38 | 56.83414 | -6.40374 | 39048 ft | 513 kts | 142° |
| 2026-05-04 06:40 | 56.60849 | -6.08530 | 39051 ft | 510 kts | 142° |
| 2026-05-04 06:40 | 56.55225 | -6.00670 | 39051 ft | 510 kts | 142° |
| 2026-05-04 06:41 | 56.49593 | -5.92829 | 39055 ft | 510 kts | 142° |
| 2026-05-04 06:41 | 56.43999 | -5.85070 | 39054 ft | 510 kts | 142° |
| 2026-05-04 06:42 | 56.38369 | -5.77291 | 39048 ft | 507 kts | 142° |
| 2026-05-04 06:44 | 56.16068 | -5.46769 | 39057 ft | 502 kts | 142° |
| 2026-05-04 06:44 | 56.10546 | -5.39282 | 39052 ft | 501 kts | 142° |
| 2026-05-04 06:45 | 56.04981 | -5.31763 | 39058 ft | 501 kts | 142° |
| 2026-05-04 06:45 | 55.99415 | -5.24272 | 39052 ft | 500 kts | 142° |
| 2026-05-04 06:46 | 55.93840 | -5.16796 | 39052 ft | 501 kts | 142° |
| 2026-05-04 06:46 | 55.88255 | -5.09334 | 39059 ft | 501 kts | 142° |
| 2026-05-04 06:48 | 55.65994 | -4.79864 | 39044 ft | 499 kts | 143° |
| 2026-05-04 06:50 | 55.43735 | -4.50819 | 39041 ft | 497 kts | 143° |
| 2026-05-04 06:51 | 55.38161 | -4.43610 | 39040 ft | 496 kts | 143° |
| 2026-05-04 06:51 | 55.33500 | -4.37602 | 39042 ft | 495 kts | 143° |
| 2026-05-04 06:52 | 55.27976 | -4.30507 | 39041 ft | 495 kts | 143° |
| 2026-05-04 06:52 | 55.22410 | -4.23382 | 39041 ft | 495 kts | 143° |
| 2026-05-04 06:53 | 55.16838 | -4.16275 | 39035 ft | 496 kts | 143° |
| 2026-05-04 06:53 | 55.11254 | -4.09176 | 39039 ft | 497 kts | 143° |
| 2026-05-04 06:54 | 55.05644 | -4.02070 | 39033 ft | 497 kts | 143° |
| 2026-05-04 06:54 | 55.00049 | -3.95008 | 39050 ft | 497 kts | 143° |
| 2026-05-04 06:55 | 54.94446 | -3.87961 | 39051 ft | 497 kts | 143° |
| 2026-05-04 06:55 | 54.88859 | -3.80959 | 39038 ft | 499 kts | 143° |
| 2026-05-04 06:57 | 54.66344 | -3.52985 | 39034 ft | 496 kts | 144° |
| 2026-05-04 06:58 | 54.60723 | -3.46062 | 39038 ft | 495 kts | 144° |
| 2026-05-04 06:58 | 54.55112 | -3.39175 | 39028 ft | 494 kts | 144° |
| 2026-05-04 06:59 | 54.49537 | -3.32357 | 39033 ft | 494 kts | 144° |
| 2026-05-04 06:59 | 54.43926 | -3.25517 | 39042 ft | 494 kts | 144° |
| 2026-05-04 07:01 | 54.21381 | -2.98269 | 39038 ft | 496 kts | 144° |
| 2026-05-04 07:02 | 54.15552 | -2.92148 | 39042 ft | 494 kts | 155° |
| 2026-05-04 07:02 | 54.09287 | -2.87332 | 39039 ft | 493 kts | 157° |
| 2026-05-04 07:03 | 54.02960 | -2.82770 | 39031 ft | 493 kts | 157° |
| 2026-05-04 07:03 | 53.96488 | -2.78901 | 39034 ft | 493 kts | 162° |
| 2026-05-04 07:04 | 53.89933 | -2.75414 | 39030 ft | 493 kts | 163° |
| 2026-05-04 07:04 | 53.83383 | -2.71953 | 39029 ft | 493 kts | 163° |
| 2026-05-04 07:05 | 53.76834 | -2.68505 | 39031 ft | 493 kts | 163° |
| 2026-05-04 07:05 | 53.70328 | -2.65091 | 39026 ft | 492 kts | 163° |
| 2026-05-04 07:06 | 53.60507 | -2.59959 | 39026 ft | 492 kts | 163° |
| 2026-05-04 07:07 | 53.53970 | -2.56556 | 39029 ft | 491 kts | 163° |
| 2026-05-04 07:09 | 53.27859 | -2.43078 | 39036 ft | 491 kts | 163° |
| 2026-05-04 07:09 | 53.21307 | -2.39723 | 39041 ft | 491 kts | 163° |
| 2026-05-04 07:10 | 53.14771 | -2.36386 | 39034 ft | 491 kts | 163° |
| 2026-05-04 07:12 | 52.90267 | -2.17090 | 39018 ft | 492 kts | 148° |
| 2026-05-04 07:12 | 52.84518 | -2.11071 | 39019 ft | 492 kts | 148° |
| 2026-05-04 07:13 | 52.78719 | -2.05031 | 39012 ft | 492 kts | 148° |
| 2026-05-04 07:13 | 52.72929 | -1.99019 | 39009 ft | 492 kts | 149° |
| 2026-05-04 07:14 | 52.58425 | -1.84054 | 39017 ft | 492 kts | 149° |
| 2026-05-04 07:15 | 52.52613 | -1.78092 | 39020 ft | 492 kts | 149° |
| 2026-05-04 07:15 | 52.46842 | -1.72188 | 39020 ft | 492 kts | 149° |
| 2026-05-04 07:16 | 52.41031 | -1.66261 | 39020 ft | 492 kts | 149° |
| 2026-05-04 07:16 | 52.35214 | -1.60349 | 39017 ft | 492 kts | 149° |
| 2026-05-04 07:17 | 52.29388 | -1.54446 | 39015 ft | 492 kts | 149° |
| 2026-05-04 07:17 | 52.23570 | -1.48568 | 39020 ft | 491 kts | 149° |
| 2026-05-04 07:18 | 52.18138 | -1.41795 | 39020 ft | 491 kts | 140° |
| 2026-05-04 07:18 | 52.15558 | -1.38167 | 38887 ft | 487 kts | 140° |
| 2026-05-04 07:18 | 52.13008 | -1.34585 | 38148 ft | 480 kts | 140° |
| 2026-05-04 07:19 | 52.10518 | -1.31102 | 36831 ft | 477 kts | 140° |
| 2026-05-04 07:19 | 52.07993 | -1.27585 | 35452 ft | 477 kts | 141° |
| 2026-05-04 07:19 | 52.05473 | -1.24083 | 34120 ft | 476 kts | 141° |
| 2026-05-04 07:19 | 52.02962 | -1.20598 | 32501 ft | 474 kts | 142° |
| 2026-05-04 07:20 | 52.00464 | -1.17135 | 30936 ft | 472 kts | 142° |
| 2026-05-04 07:20 | 51.97968 | -1.13685 | 29395 ft | 468 kts | 143° |
| 2026-05-04 07:20 | 51.95513 | -1.10297 | 27914 ft | 460 kts | 143° |
| 2026-05-04 07:20 | 51.93106 | -1.06978 | 26951 ft | 444 kts | 143° |
| 2026-05-04 07:22 | 51.81876 | -0.85219 | 24002 ft | 326 kts | 120° |
| 2026-05-04 07:22 | 51.80903 | -0.81957 | 23511 ft | 318 kts | 120° |
| 2026-05-04 07:23 | 51.79936 | -0.78761 | 22748 ft | 316 kts | 120° |
| 2026-05-04 07:23 | 51.78964 | -0.75579 | 21976 ft | 315 kts | 120° |
| 2026-05-04 07:23 | 51.78002 | -0.72437 | 21341 ft | 309 kts | 120° |
| 2026-05-04 07:23 | 51.77051 | -0.69343 | 20725 ft | 305 kts | 120° |
| 2026-05-04 07:24 | 51.76113 | -0.66296 | 20098 ft | 301 kts | 120° |
| 2026-05-04 07:24 | 51.75196 | -0.63320 | 19493 ft | 297 kts | 119° |
| 2026-05-04 07:24 | 51.74280 | -0.60358 | 18910 ft | 293 kts | 119° |
| 2026-05-04 07:24 | 51.73374 | -0.57427 | 18342 ft | 290 kts | 119° |
| 2026-05-04 07:25 | 51.72450 | -0.54563 | 17664 ft | 286 kts | 123° |
| 2026-05-04 07:26 | 51.65213 | -0.60729 | 12941 ft | 265 kts | 294° |
| 2026-05-04 07:27 | 51.66091 | -0.63339 | 12292 ft | 264 kts | 298° |
| 2026-05-04 07:27 | 51.66997 | -0.65861 | 11564 ft | 266 kts | 298° |
| 2026-05-04 07:27 | 51.67870 | -0.68548 | 10590 ft | 275 kts | 292° |
| 2026-05-04 07:27 | 51.68557 | -0.71470 | 9579 ft | 283 kts | 286° |
| 2026-05-04 07:28 | 51.69378 | -0.74348 | 8651 ft | 284 kts | 306° |
| 2026-05-04 07:28 | 51.70950 | -0.76238 | 7955 ft | 288 kts | 340° |
| 2026-05-04 07:28 | 51.72901 | -0.76440 | 7677 ft | 281 kts | 12° |
| 2026-05-04 07:28 | 51.74569 | -0.74990 | 7477 ft | 270 kts | 44° |
| 2026-05-04 07:29 | 51.75639 | -0.72609 | 7312 ft | 258 kts | 65° |
| 2026-05-04 07:29 | 51.76147 | -0.69895 | 7087 ft | 249 kts | 84° |
| 2026-05-04 07:29 | 51.76134 | -0.67155 | 7015 ft | 247 kts | 100° |
| 2026-05-04 07:29 | 51.75601 | -0.64538 | 7006 ft | 245 kts | 117° |
| 2026-05-04 07:30 | 51.74834 | -0.62091 | 7011 ft | 245 kts | 118° |
| 2026-05-04 07:30 | 51.74063 | -0.59637 | 7008 ft | 245 kts | 118° |
| 2026-05-04 07:30 | 51.73299 | -0.57186 | 7006 ft | 245 kts | 118° |
| 2026-05-04 07:30 | 51.72487 | -0.54774 | 7014 ft | 244 kts | 123° |
| 2026-05-04 07:31 | 51.71531 | -0.52512 | 7015 ft | 244 kts | 127° |
| 2026-05-04 07:31 | 51.70539 | -0.50291 | 7016 ft | 244 kts | 127° |
| 2026-05-04 07:33 | 51.63589 | -0.34803 | 7019 ft | 244 kts | 127° |
| 2026-05-04 07:33 | 51.62581 | -0.32561 | 7021 ft | 244 kts | 127° |
| 2026-05-04 07:33 | 51.61600 | -0.30376 | 6997 ft | 245 kts | 127° |
| 2026-05-04 07:33 | 51.60584 | -0.28180 | 6771 ft | 244 kts | 129° |
| 2026-05-04 07:34 | 51.59560 | -0.26034 | 6525 ft | 238 kts | 128° |
| 2026-05-04 07:34 | 51.58575 | -0.23966 | 6375 ft | 227 kts | 129° |
| 2026-05-04 07:34 | 51.57637 | -0.21993 | 6230 ft | 217 kts | 128° |
| 2026-05-04 07:34 | 51.56752 | -0.20078 | 6074 ft | 208 kts | 128° |
| 2026-05-04 07:35 | 51.55913 | -0.18236 | 5819 ft | 202 kts | 127° |
| 2026-05-04 07:35 | 51.55079 | -0.16413 | 5489 ft | 202 kts | 127° |
| 2026-05-04 07:35 | 51.54111 | -0.14812 | 5139 ft | 200 kts | 148° |
| 2026-05-04 07:35 | 51.52816 | -0.14251 | 4728 ft | 193 kts | 179° |
| 2026-05-04 07:36 | 51.51475 | -0.14302 | 4275 ft | 192 kts | 183° |
| 2026-05-04 07:36 | 51.50153 | -0.14397 | 3837 ft | 192 kts | 182° |
| 2026-05-04 07:38 | 51.47831 | -0.24964 | 2347 ft | 186 kts | 274° |
| 2026-05-04 07:38 | 51.47843 | -0.27670 | 2019 ft | 175 kts | 270° |
| 2026-05-04 07:38 | 51.47830 | -0.28937 | 1859 ft | 169 kts | 270° |
| 2026-05-04 07:38 | 51.47811 | -0.31413 | 1537 ft | 167 kts | 271° |
| 2026-05-04 07:39 | 51.47801 | -0.33228 | 1317 ft | 159 kts | 271° |
| 2026-05-04 07:39 | 51.47792 | -0.34958 | 1112 ft | 151 kts | 268° |
| 2026-05-04 07:39 | 51.47762 | -0.36581 | 948 ft | 141 kts | 270° |
| 2026-05-04 07:39 | 51.47753 | -0.37639 | 806 ft | 140 kts | 272° |
| 2026-05-04 07:40 | 51.47776 | -0.39197 | 655 ft | 141 kts | 275° |
| 2026-05-04 07:40 | 51.47776 | -0.40753 | 459 ft | 142 kts | 270° |
| 2026-05-04 07:40 | 51.47773 | -0.42318 | 266 ft | 139 kts | 273° |
| 2026-05-04 07:40 | 51.47766 | -0.43885 | 104 ft | 140 kts | 271° |
| 2026-05-04 07:41 | 51.47763 | -0.45288 | 92 ft | 101 kts | 269° |
| 2026-05-04 07:41 | 51.47760 | -0.46113 | 96 ft | 56 kts | 270° |
| 2026-05-04 07:41 | 51.47730 | -0.46628 | 97 ft | 32 kts | 247° |
| 2026-05-04 07:41 | 51.47662 | -0.46834 | 98 ft | 16 kts | 230° |
| 2026-05-04 07:42 | 51.47627 | -0.46873 | 97 ft | 6 kts | 206° |
| 2026-05-04 07:42 | 51.47591 | -0.46934 | 95 ft | 9 kts | 251° |
| 2026-05-04 07:42 | 51.47583 | -0.47064 | 95 ft | 14 kts | 268° |
| 2026-05-04 07:42 | 51.47582 | -0.47201 | 96 ft | 6 kts | 270° |
| 2026-05-04 07:43 | 51.47582 | -0.47236 | 96 ft | 0 kts | 270° |
| 2026-05-04 07:43 | 51.47582 | -0.47264 | 96 ft | 6 kts | 270° |
| 2026-05-04 07:43 | 51.47582 | -0.47383 | 95 ft | 14 kts | 270° |
| 2026-05-04 07:43 | 51.47581 | -0.47560 | 95 ft | 18 kts | 269° |
| 2026-05-04 07:44 | 51.47579 | -0.47741 | 95 ft | 11 kts | 269° |
| 2026-05-04 07:44 | 51.47573 | -0.47845 | 96 ft | 9 kts | 244° |
| 2026-05-04 07:44 | 51.47511 | -0.47873 | 94 ft | 12 kts | 180° |
| 2026-05-04 07:44 | 51.47425 | -0.47873 | 95 ft | 7 kts | 180° |
| 2026-05-04 07:45 | 51.47419 | -0.47873 | 95 ft | 0 kts | 180° |
| 2026-05-04 07:49 | 51.46997 | -0.47869 | 92 ft | 18 kts | 179° |
| 2026-05-04 07:49 | 51.46929 | -0.47861 | 97 ft | 7 kts | 155° |
| 2026-05-04 07:49 | 51.46917 | -0.47786 | 95 ft | 5 kts | 90° |
| 2026-05-04 07:50 | 51.46917 | -0.47748 | 92 ft | 2 kts | 90° |